Fort Dodge Regional Airport
KFOD : now visible

Airfield :











YOU CAN JOIN US ON...

 
LOGIN :

Register | Disclaimer

   EN    FR    IT 

 









Legend :    VFR   Marginal VFR   IFR   Intensive IFR   Very Intensive IFR
Visi :
Ceiling :
>= 8 km
>= 3000ft
5 to 8 km
1000 to 3000 ft
1500m to 5 km
500 to 1000 ft
800 to 1500m
200 to 500 ft
< 800m
< 200 ft
Symbols :   Thunderstorms  Fog  Heavy snow  Heavy precipitations  Wind > 20 kt






- Airport Elevation : 1156 ft
- IATA code : FOD


KFOD - Fort Dodge Regional

CURRENT METAR :
  • 061120Z AUTO 07007KT 10SM FEW001 BKN060 BKN090 17/13 A3007 RMK AO2 LTG DSNT E AND SE AND NW

EXPIRED METARs :
  • 061056Z AUTO 09011KT 10SM FEW036 BKN060 17/13 A3006 RMK AO2 LTG DSNT SE TSE29B39E54RAE55 SLP198 P0007 T01720133
  • 061045Z AUTO 07008KT 10SM VCTS -RA FEW041 OVC060 17/14 A3006 RMK AO2 LTG DSNT NE-SE TSE29B39 P0007
  • 061035Z AUTO 06008KT 7SM +RA FEW028 OVC060 17/13 A3007 RMK AO2 LTG DSNT SE AND S TSE29 P0007
  • 060956Z AUTO 10005KT 10SM VCTS -RA BKN065 OVC085 17/14 A3005 RMK AO2 LTG DSNT SE AND S AND NW TSB0858E27B39 SLP195 P0002 T01720139
  • 060945Z AUTO 14004KT 9SM TSRA BKN060 BKN070 OVC100 18/13 A3006 RMK AO2 LTG DSNT SE AND NW TSB0858E27B39 P0001
  • 060933Z AUTO 04005KT 10SM -RA BKN060 OVC075 18/13 A3004 RMK AO2 LTG DSNT SE AND S TSB0858E27 P0000
  • 060911Z AUTO 07009KT 10SM VCTS -RA FEW008 BKN070 BKN080 18/13 A3002 RMK AO2 TSB0858 P0000
  • 060904Z AUTO 11009KT 10SM VCTS -RA FEW038 BKN065 18/13 A3002 RMK AO2 TSB0858 P0000
  • 060856Z AUTO 05006KT 10SM RA FEW006 BKN065 BKN080 19/13 A3004 RMK AO2 RAB48 SLP189 P0004 60004 T01890128 55001

TAF KFOD
Valid from the 06 at 12:00 until the 07 at 12:00 UTC


061131Z 0612/0712 08009KT P6SM SCT060
FM061900 12012G20KT P6SM SCT090 BKN250
KZMP FIR / North America



MET'MAP, your aeronautical weather chart ! - Copyright ORBIFLY December 2007 - Disclaimer

ORBIFLY MET'MAP TEAM :

Programming & Development : Alexandra Zaïnal
Concept & original design : Baudouin d'Aumeries
Assistance for programming : Marc-Olivier Méhu
Technical & hardware support : Manuel Goepfert

Contact : metmap@orbifly.com




SOURCES & CREDITS :

   NOAA       Earth
Advisory